Time;durP1;ratioP1;P1;durP2;ratioP2;P2;SDS_P1;SDS_P2;PMS_P1;PMS_P2;Temp;Humidity;BMP_temperature;BMP_pressure;BME280_temperature;BME280_humidity;BME280_pressure;Samples;Min_cycle;Max_cycle;Signal;HPM_P1;HPM_P2
2022/05/16 00:00:43;;;;;;;;;4.00;2.33;;;;;;;;5103545;27;61871;-83
2022/05/16 00:03:09;;;;;;;;;4.33;2.67;;;;;;;;5104029;27;62106;-83
2022/05/16 00:05:35;;;;;;;;;8.00;7.00;;;;;;;;5104058;27;61828;-83
2022/05/16 00:08:00;;;;;;;;;4.50;4.00;;;;;;;;5103476;27;62002;-83
2022/05/16 00:10:25;;;;;;;;;4.00;4.00;;;;;;;;5085317;27;62018;-83
2022/05/16 00:12:51;;;;;;;;;4.50;4.50;;;;;;;;5103972;27;61802;-83
2022/05/16 00:15:19;;;;;;;;;6.25;4.75;;;;;;;;5085899;27;62177;-83
2022/05/16 00:17:44;;;;;;;;;5.00;4.00;;;;;;;;5084989;27;63964;-83
2022/05/16 00:20:10;;;;;;;;;5.75;5.75;;;;;;;;5085497;27;61983;-84
2022/05/16 00:22:35;;;;;;;;;6.75;3.75;;;;;;;;5103779;27;61780;-83
2022/05/16 00:25:02;;;;;;;;;5.75;5.75;;;;;;;;5103702;27;61852;-82
2022/05/16 00:27:27;;;;;;;;;6.50;4.25;;;;;;;;5103372;27;62889;-84
2022/05/16 00:29:52;;;;;;;;;4.00;4.00;;;;;;;;5103605;27;62022;-84
2022/05/16 00:32:18;;;;;;;;;6.00;4.50;;;;;;;;5085579;27;61805;-84
2022/05/16 00:34:43;;;;;;;;;3.00;3.00;;;;;;;;5103928;27;61733;-83
2022/05/16 00:37:09;;;;;;;;;4.25;4.00;;;;;;;;5102836;27;61924;-82
2022/05/16 00:39:34;;;;;;;;;5.75;2.75;;;;;;;;5102529;27;61823;-83
2022/05/16 00:41:59;;;;;;;;;5.50;4.75;;;;;;;;5085273;27;61843;-83
2022/05/16 00:44:25;;;;;;;;;4.00;4.00;;;;;;;;5085575;27;61782;-83
2022/05/16 00:46:51;;;;;;;;;5.33;3.67;;;;;;;;5102753;27;62896;-83
2022/05/16 00:49:29;;;;;;;;;5.00;2.50;;;;;;;;5103221;27;61883;-84
2022/05/16 00:52:03;;;;;;;;;3.25;2.00;;;;;;;;5085108;27;62009;-84
2022/05/16 00:54:30;;;;;;;;;4.75;3.25;;;;;;;;5103479;27;62097;-83
2022/05/16 00:56:59;;;;;;;;;4.00;1.00;;;;;;;;5083835;27;63941;-83
2022/05/16 00:59:28;;;;;;;;;4.33;2.67;;;;;;;;5103284;27;61868;-83
2022/05/16 01:04:47;;;;;;;;;1.67;1.00;;;;;;;;5103501;27;61869;-83
2022/05/16 01:07:13;;;;;;;;;2.75;1.75;;;;;;;;5102741;27;62132;-83
2022/05/16 01:09:38;;;;;;;;;2.00;2.00;;;;;;;;5102355;27;61999;-83
2022/05/16 01:12:04;;;;;;;;;2.50;2.50;;;;;;;;5103131;27;61984;-83
2022/05/16 01:14:49;;;;;;;;;3.33;3.00;;;;;;;;5103578;27;62012;-83
2022/05/16 01:17:14;;;;;;;;;2.67;2.67;;;;;;;;5084261;27;64982;-83
2022/05/16 01:19:40;;;;;;;;;1.33;1.00;;;;;;;;5102868;27;61793;-83
2022/05/16 01:22:08;;;;;;;;;1.33;1.33;;;;;;;;5084802;27;61989;-83
2022/05/16 01:24:33;;;;;;;;;1.50;1.50;;;;;;;;5103109;27;61844;-83
2022/05/16 01:26:59;;;;;;;;;2.50;1.75;;;;;;;;5102048;27;61752;-83
2022/05/16 01:29:24;;;;;;;;;1.67;1.67;;;;;;;;5102828;27;61647;-82
2022/05/16 01:31:50;;;;;;;;;3.25;2.00;;;;;;;;5084452;27;61871;-83
2022/05/16 01:34:15;;;;;;;;;2.67;1.67;;;;;;;;5084673;27;61942;-83
2022/05/16 01:36:40;;;;;;;;;1.00;1.00;;;;;;;;5102588;27;62592;-83
2022/05/16 01:39:06;;;;;;;;;1.00;1.00;;;;;;;;5102084;27;61642;-82
2022/05/16 01:41:31;;;;;;;;;3.00;2.00;;;;;;;;5102798;27;61808;-83
2022/05/16 01:43:58;;;;;;;;;2.67;1.67;;;;;;;;5102437;27;61733;-82
2022/05/16 01:46:25;;;;;;;;;2.00;2.00;;;;;;;;5083335;27;63737;-83
2022/05/16 01:48:52;;;;;;;;;1.00;1.00;;;;;;;;5102206;27;61808;-82
2022/05/16 01:51:17;;;;;;;;;3.00;2.00;;;;;;;;5104370;27;61938;-83
2022/05/16 01:53:43;;;;;;;;;1.67;1.67;;;;;;;;5087781;27;61909;-83
2022/05/16 01:56:08;;;;;;;;;4.25;2.00;;;;;;;;5105358;27;61807;-82
2022/05/16 01:58:34;;;;;;;;;3.00;1.50;;;;;;;;5106208;27;61967;-82
2022/05/16 02:00:59;;;;;;;;;3.00;2.00;;;;;;;;5087661;27;61910;-83
2022/05/16 02:03:25;;;;;;;;;1.67;1.67;;;;;;;;5106470;27;61932;-82
2022/05/16 02:05:50;;;;;;;;;1.00;1.00;;;;;;;;5105792;27;61843;-82
2022/05/16 02:08:16;;;;;;;;;2.25;1.25;;;;;;;;5105310;27;62155;-83
2022/05/16 02:10:42;;;;;;;;;3.00;1.50;;;;;;;;5106062;27;61946;-82
2022/05/16 02:13:08;;;;;;;;;4.00;2.00;;;;;;;;5106019;27;61736;-82
2022/05/16 02:15:35;;;;;;;;;1.00;1.00;;;;;;;;5105584;27;62720;-83
2022/05/16 02:18:00;;;;;;;;;3.33;2.33;;;;;;;;5087399;27;61948;-83
2022/05/16 02:20:26;;;;;;;;;2.33;2.33;;;;;;;;5106015;27;62388;-83
2022/05/16 02:25:37;;;;;;;;;2.00;2.00;;;;;;;;5105110;27;62141;-83
2022/05/16 02:28:03;;;;;;;;;2.75;2.75;;;;;;;;5087082;27;61855;-83
2022/05/16 02:30:29;;;;;;;;;2.25;2.25;;;;;;;;5105973;27;61779;-83
2022/05/16 02:32:55;;;;;;;;;3.25;3.25;;;;;;;;5106014;27;61911;-83
2022/05/16 02:35:20;;;;;;;;;6.25;5.00;;;;;;;;5086570;27;63820;-83
2022/05/16 02:37:46;;;;;;;;;4.25;3.00;;;;;;;;5104947;27;61851;-82
2022/05/16 02:40:11;;;;;;;;;4.00;2.00;;;;;;;;5105432;27;61806;-83
2022/05/16 02:42:37;;;;;;;;;3.75;2.00;;;;;;;;5105831;27;62028;-82
2022/05/16 02:45:03;;;;;;;;;3.25;3.25;;;;;;;;5104951;27;62786;-83
2022/05/16 02:47:28;;;;;;;;;4.00;4.00;;;;;;;;5105586;27;62045;-84
2022/05/16 02:49:53;;;;;;;;;4.00;2.50;;;;;;;;5086898;27;61748;-83
2022/05/16 02:52:18;;;;;;;;;6.50;4.25;;;;;;;;5105190;27;62165;-83
2022/05/16 02:54:45;;;;;;;;;4.00;4.00;;;;;;;;5104810;27;62914;-83
2022/05/16 02:57:11;;;;;;;;;5.00;2.25;;;;;;;;5104827;27;61718;-83
2022/05/16 02:59:37;;;;;;;;;3.75;3.75;;;;;;;;5105599;27;61773;-83
2022/05/16 03:02:03;;;;;;;;;4.75;4.00;;;;;;;;5087180;27;61982;-83
2022/05/16 03:04:29;;;;;;;;;4.50;4.50;;;;;;;;5085905;27;62667;-83
2022/05/16 03:06:55;;;;;;;;;5.75;4.00;;;;;;;;5105083;27;61732;-83
2022/05/16 03:09:21;;;;;;;;;7.00;6.00;;;;;;;;5104509;27;61839;-82
2022/05/16 03:11:46;;;;;;;;;6.00;4.00;;;;;;;;5105390;27;62205;-83
2022/05/16 03:14:12;;;;;;;;;6.75;5.00;;;;;;;;5104541;27;61915;-83
2022/05/16 03:16:37;;;;;;;;;4.75;4.00;;;;;;;;5086508;27;61887;-83
2022/05/16 03:19:03;;;;;;;;;6.00;5.00;;;;;;;;5104810;27;61756;-82
2022/05/16 03:21:29;;;;;;;;;9.00;5.00;;;;;;;;5105102;27;61827;-83
2022/05/16 03:23:56;;;;;;;;;7.25;7.00;;;;;;;;5104468;27;62522;-83
2022/05/16 03:26:21;;;;;;;;;6.00;5.00;;;;;;;;5104543;27;62037;-81
2022/05/16 03:28:46;;;;;;;;;8.00;6.25;;;;;;;;5104606;27;62093;-82
2022/05/16 03:31:12;;;;;;;;;5.00;5.00;;;;;;;;5086545;27;61935;-82
2022/05/16 03:33:37;;;;;;;;;7.50;6.75;;;;;;;;5103974;27;62016;-82
2022/05/16 03:36:02;;;;;;;;;8.25;7.25;;;;;;;;5104935;27;62493;-82
2022/05/16 03:41:12;;;;;;;;;4.75;4.75;;;;;;;;5104731;27;62094;-82
2022/05/16 03:43:39;;;;;;;;;7.75;6.75;;;;;;;;5085407;27;63336;-82
2022/05/16 03:46:05;;;;;;;;;8.75;7.50;;;;;;;;5104814;27;62119;-82
2022/05/16 03:48:31;;;;;;;;;6.25;6.00;;;;;;;;5103873;27;61939;-82
2022/05/16 03:50:56;;;;;;;;;5.75;5.75;;;;;;;;5104994;27;61792;-83
2022/05/16 03:53:21;;;;;;;;;8.75;8.00;;;;;;;;5103675;27;62059;-82
2022/05/16 03:55:47;;;;;;;;;9.75;7.50;;;;;;;;5104576;27;61711;-83
2022/05/16 03:58:12;;;;;;;;;10.25;7.00;;;;;;;;5104465;27;61723;-83
2022/05/16 04:00:37;;;;;;;;;8.25;5.00;;;;;;;;5104528;27;62146;-83
2022/05/16 04:03:02;;;;;;;;;5.75;5.75;;;;;;;;5103470;27;62764;-83
2022/05/16 04:05:28;;;;;;;;;9.00;6.75;;;;;;;;5104278;27;61903;-83
2022/05/16 04:07:53;;;;;;;;;8.75;7.50;;;;;;;;5085553;27;61933;-83
2022/05/16 04:10:20;;;;;;;;;1.25;0.50;;;;;;;;5104133;27;61897;-83
2022/05/16 04:12:45;;;;;;;;;16.00;9.25;;;;;;;;5103501;27;61973;-83
2022/05/16 04:15:12;;;;;;;;;8.25;6.00;;;;;;;;5103427;27;62034;-83
2022/05/16 04:17:37;;;;;;;;;11.00;8.25;;;;;;;;5103764;27;61835;-83
2022/05/16 04:20:03;;;;;;;;;7.25;6.50;;;;;;;;5104452;27;61865;-83
2022/05/16 04:22:30;;;;;;;;;9.75;8.50;;;;;;;;5085089;27;64531;-82
2022/05/16 04:24:56;;;;;;;;;6.75;6.25;;;;;;;;5103855;27;61903;-82
2022/05/16 04:27:21;;;;;;;;;7.75;7.75;;;;;;;;5104189;27;61706;-83
2022/05/16 04:29:46;;;;;;;;;8.00;6.50;;;;;;;;5103911;27;62169;-83
2022/05/16 04:32:11;;;;;;;;;8.50;7.50;;;;;;;;5103070;27;62636;-83
2022/05/16 04:34:37;;;;;;;;;8.25;7.00;;;;;;;;5085486;27;61814;-83
2022/05/16 04:37:02;;;;;;;;;9.75;8.75;;;;;;;;5103891;27;61725;-82
2022/05/16 04:39:27;;;;;;;;;7.25;7.25;;;;;;;;5103216;27;61849;-82
2022/05/16 04:44:38;;;;;;;;;7.75;6.00;;;;;;;;5103284;27;61925;-83
2022/05/16 04:47:04;;;;;;;;;8.50;6.75;;;;;;;;5103249;27;62028;-82
2022/05/16 04:49:30;;;;;;;;;9.50;6.75;;;;;;;;5103624;27;61924;-83
2022/05/16 04:51:55;;;;;;;;;7.00;7.00;;;;;;;;5102901;27;62372;-83
2022/05/16 04:54:21;;;;;;;;;8.50;7.50;;;;;;;;5103529;27;61789;-82
2022/05/16 04:56:47;;;;;;;;;9.25;8.75;;;;;;;;5084447;27;62151;-82
2022/05/16 04:59:13;;;;;;;;;9.75;8.25;;;;;;;;5120424;27;62009;-82
2022/05/16 05:01:38;;;;;;;;;10.25;9.00;;;;;;;;5083390;27;64693;-82
2022/05/16 05:04:03;;;;;;;;;9.75;9.25;;;;;;;;5122915;27;62315;-84
2022/05/16 05:06:29;;;;;;;;;16.50;8.50;;;;;;;;5123620;27;61856;-83
2022/05/16 05:08:54;;;;;;;;;11.00;9.00;;;;;;;;5105743;27;62007;-83
2022/05/16 05:16:47;;;;;;;;;11.00;10.00;;;;;;;;5123413;27;62206;-86
2022/05/16 05:19:12;;;;;;;;;9.75;8.75;;;;;;;;5123512;27;61751;-85
2022/05/16 05:21:37;;;;;;;;;9.75;8.50;;;;;;;;5103552;27;63738;-83
2022/05/16 05:24:03;;;;;;;;;15.25;9.75;;;;;;;;5086488;27;61841;-85
2022/05/16 05:26:28;;;;;;;;;12.25;10.00;;;;;;;;5101734;27;62609;-85
2022/05/16 05:28:53;;;;;;;;;12.00;10.00;;;;;;;;5084621;27;62078;-83
2022/05/16 05:31:20;;;;;;;;;10.50;7.25;;;;;;;;5101190;27;62628;-82
2022/05/16 05:33:46;;;;;;;;;8.75;8.75;;;;;;;;5101899;27;61853;-83
2022/05/16 05:36:21;;;;;;;;;10.25;10.00;;;;;;;;5099686;27;62111;-82
2022/05/16 05:38:51;;;;;;;;;14.75;11.00;;;;;;;;5082848;27;61810;-82
2022/05/16 05:41:19;;;;;;;;;12.25;9.00;;;;;;;;5100583;27;62131;-82
2022/05/16 05:43:44;;;;;;;;;12.50;11.50;;;;;;;;5100966;27;62014;-82
2022/05/16 05:46:09;;;;;;;;;9.75;9.50;;;;;;;;5101535;27;61984;-82
2022/05/16 05:48:35;;;;;;;;;13.75;10.25;;;;;;;;5101047;27;62078;-81
2022/05/16 05:51:00;;;;;;;;;13.00;10.25;;;;;;;;5081502;27;64527;-80
2022/05/16 05:53:25;;;;;;;;;12.75;9.75;;;;;;;;5082014;27;62116;-80
2022/05/16 05:55:51;;;;;;;;;12.50;9.00;;;;;;;;5100174;27;62036;-80
2022/05/16 05:58:16;;;;;;;;;11.25;9.50;;;;;;;;5100601;27;61742;-81
2022/05/16 06:00:42;;;;;;;;;10.25;10.25;;;;;;;;5082060;27;64095;-82
2022/05/16 06:03:07;;;;;;;;;10.50;7.75;;;;;;;;5101014;27;61687;-81
2022/05/16 06:05:33;;;;;;;;;5.25;5.00;;;;;;;;5083178;27;61821;-84
2022/05/16 06:07:58;;;;;;;;;8.75;6.25;;;;;;;;5101347;27;61802;-82
2022/05/16 06:10:24;;;;;;;;;9.75;7.75;;;;;;;;5099881;27;62089;-84
2022/05/16 06:12:49;;;;;;;;;10.00;8.00;;;;;;;;5100885;27;61714;-84
2022/05/16 06:15:15;;;;;;;;;11.75;7.00;;;;;;;;5100380;27;62074;-81
2022/05/16 06:17:40;;;;;;;;;10.25;9.00;;;;;;;;5102800;27;61806;-83
2022/05/16 06:20:07;;;;;;;;;8.00;7.75;;;;;;;;5081064;27;63843;-82
2022/05/16 06:22:36;;;;;;;;;12.00;9.50;;;;;;;;5082047;27;61856;-81
2022/05/16 06:27:47;;;;;;;;;13.50;10.00;;;;;;;;5100938;27;61701;-81
2022/05/16 06:30:12;;;;;;;;;10.00;7.50;;;;;;;;5100091;27;61674;-82
2022/05/16 06:32:37;;;;;;;;;16.50;8.50;;;;;;;;5101279;27;61813;-81
2022/05/16 06:35:03;;;;;;;;;9.75;9.25;;;;;;;;5100404;27;61773;-83
2022/05/16 06:37:28;;;;;;;;;9.75;8.00;;;;;;;;5102540;27;61734;-81
2022/05/16 06:39:53;;;;;;;;;9.50;7.00;;;;;;;;5102564;27;61900;-83
2022/05/16 06:42:19;;;;;;;;;8.25;7.50;;;;;;;;5085266;27;62113;-82
2022/05/16 06:44:44;;;;;;;;;7.00;6.50;;;;;;;;5104331;27;62010;-81
2022/05/16 06:47:10;;;;;;;;;11.50;8.00;;;;;;;;5085427;27;62028;-82
2022/05/16 06:49:35;;;;;;;;;18.00;9.25;;;;;;;;5102855;27;61931;-78
2022/05/16 06:52:01;;;;;;;;;9.75;8.50;;;;;;;;5103704;27;61979;-77
2022/05/16 06:54:26;;;;;;;;;9.50;6.50;;;;;;;;5103117;27;61789;-78
2022/05/16 06:56:51;;;;;;;;;10.00;9.00;;;;;;;;5103120;27;61916;-77
2022/05/16 06:59:19;;;;;;;;;6.25;4.75;;;;;;;;5102489;27;61894;-76
2022/05/16 07:01:44;;;;;;;;;10.25;7.50;;;;;;;;5103408;27;61813;-77
2022/05/16 07:04:09;;;;;;;;;7.00;6.00;;;;;;;;5085374;27;61815;-77
2022/05/16 07:06:34;;;;;;;;;6.00;6.00;;;;;;;;5085561;27;62167;-77
2022/05/16 07:09:00;;;;;;;;;6.00;6.00;;;;;;;;5101302;27;61916;-78
2022/05/16 07:11:25;;;;;;;;;8.25;5.00;;;;;;;;5103167;27;61814;-77
2022/05/16 07:13:51;;;;;;;;;7.25;5.75;;;;;;;;5103581;27;61664;-77
2022/05/16 07:16:16;;;;;;;;;8.00;7.00;;;;;;;;5103327;27;62138;-77
2022/05/16 07:18:41;;;;;;;;;6.00;6.00;;;;;;;;5102800;27;62702;-77
2022/05/16 07:21:07;;;;;;;;;5.00;5.00;;;;;;;;5084090;27;61984;-77
2022/05/16 07:23:33;;;;;;;;;4.00;3.00;;;;;;;;5085213;27;61816;-77
2022/05/16 07:28:42;;;;;;;;;14.50;7.75;;;;;;;;5102651;27;62371;-77
2022/05/16 07:31:07;;;;;;;;;4.75;4.75;;;;;;;;5102320;27;62236;-76
2022/05/16 07:33:34;;;;;;;;;8.75;6.25;;;;;;;;5102959;27;62049;-76
2022/05/16 07:35:59;;;;;;;;;7.00;5.00;;;;;;;;5103525;27;61835;-77
2022/05/16 07:38:27;;;;;;;;;8.00;7.00;;;;;;;;5083454;27;64764;-77
2022/05/16 07:40:53;;;;;;;;;7.00;5.50;;;;;;;;5084655;27;62173;-78
2022/05/16 07:43:19;;;;;;;;;10.75;5.75;;;;;;;;5103269;27;61725;-77
2022/05/16 07:45:44;;;;;;;;;8.50;5.75;;;;;;;;5103532;27;61752;-77
2022/05/16 07:48:09;;;;;;;;;9.00;6.00;;;;;;;;5083018;27;64680;-77
2022/05/16 07:50:36;;;;;;;;;8.25;5.75;;;;;;;;5102035;27;62036;-77
2022/05/16 07:53:03;;;;;;;;;6.00;4.75;;;;;;;;5098836;27;61904;-77
2022/05/16 07:55:28;;;;;;;;;4.67;4.67;;;;;;;;5102407;27;61798;-77
2022/05/16 07:57:53;;;;;;;;;7.25;4.50;;;;;;;;5101719;27;61722;-77
2022/05/16 08:00:19;;;;;;;;;11.00;5.75;;;;;;;;5102866;27;61951;-76
2022/05/16 08:02:45;;;;;;;;;5.50;4.75;;;;;;;;5103398;27;62020;-77
2022/05/16 08:05:11;;;;;;;;;9.25;6.75;;;;;;;;5102668;27;61833;-77
2022/05/16 08:10:29;;;;;;;;;5.00;5.00;;;;;;;;5101146;27;62781;-80
2022/05/16 08:10:31;;;;;;;;;7.50;3.75;;;;;;;;5100229;27;61832;-80
2022/05/16 08:12:57;;;;;;;;;6.50;4.50;;;;;;;;5100523;27;61931;-80
2022/05/16 08:15:22;;;;;;;;;6.25;5.00;;;;;;;;5102365;27;61753;-80
2022/05/16 08:17:47;;;;;;;;;6.50;4.50;;;;;;;;5101997;27;61766;-80
2022/05/16 08:20:13;;;;;;;;;6.50;5.25;;;;;;;;5103075;27;62119;-80
2022/05/16 08:22:38;;;;;;;;;5.25;5.25;;;;;;;;5102387;27;61758;-80
2022/05/16 08:25:04;;;;;;;;;3.50;3.50;;;;;;;;5102199;27;62230;-80
2022/05/16 08:27:29;;;;;;;;;8.50;7.25;;;;;;;;5102187;27;61663;-80
2022/05/16 08:29:54;;;;;;;;;3.75;3.00;;;;;;;;5083720;27;61884;-80
2022/05/16 08:32:23;;;;;;;;;4.50;3.75;;;;;;;;5084040;27;61907;-79
2022/05/16 08:34:48;;;;;;;;;8.25;3.75;;;;;;;;5102587;27;62036;-80
2022/05/16 08:40:03;;;;;;;;;5.00;3.00;;;;;;;;5101795;27;61960;-82
2022/05/16 08:42:31;;;;;;;;;5.00;4.00;;;;;;;;5096364;27;61755;-78
2022/05/16 08:45:03;;;;;;;;;4.00;4.00;;;;;;;;5101133;27;61839;-78
2022/05/16 08:47:47;;;;;;;;;4.00;4.00;;;;;;;;5100091;27;61932;-78
2022/05/16 08:50:14;;;;;;;;;6.00;5.00;;;;;;;;5101841;27;62172;-78
2022/05/16 08:52:46;;;;;;;;;5.67;3.33;;;;;;;;5102181;27;61736;-78
2022/05/16 08:55:20;;;;;;;;;3.75;3.75;;;;;;;;5083939;27;61900;-78
2022/05/16 08:57:48;;;;;;;;;5.25;4.25;;;;;;;;5101407;27;61733;-78
2022/05/16 09:00:25;;;;;;;;;3.00;3.00;;;;;;;;5083403;27;61799;-78
2022/05/16 09:02:52;;;;;;;;;5.67;3.00;;;;;;;;5102350;27;61715;-78
2022/05/16 09:05:18;;;;;;;;;4.00;3.75;;;;;;;;5102598;27;61874;-78
2022/05/16 09:07:45;;;;;;;;;4.00;4.00;;;;;;;;5100893;27;62834;-77
2022/05/16 09:10:11;;;;;;;;;3.00;3.00;;;;;;;;5102044;27;61811;-78
2022/05/16 09:12:36;;;;;;;;;7.25;3.25;;;;;;;;5101758;27;61768;-78
2022/05/16 09:15:10;;;;;;;;;7.00;3.25;;;;;;;;5083545;27;62173;-79
2022/05/16 09:17:54;;;;;;;;;5.50;5.25;;;;;;;;5101491;27;61805;-78
2022/05/16 09:20:33;;;;;;;;;4.00;2.00;;;;;;;;5101732;27;62023;-78
2022/05/16 09:23:11;;;;;;;;;3.00;3.00;;;;;;;;5101682;27;62011;-78
2022/05/16 09:25:59;;;;;;;;;5.33;4.00;;;;;;;;5101808;27;62094;-78
2022/05/16 09:28:37;;;;;;;;;6.50;3.00;;;;;;;;5017220;28;62058;-78
2022/05/16 09:31:28;;;;;;;;;4.50;3.00;;;;;;;;5018189;28;61971;-79
2022/05/16 09:33:55;;;;;;;;;3.00;3.00;;;;;;;;5006807;28;62093;-78
2022/05/16 09:36:37;;;;;;;;;5.00;3.50;;;;;;;;5001705;28;62009;-78
2022/05/16 09:39:03;;;;;;;;;6.67;3.67;;;;;;;;5017197;28;63155;-79
2022/05/16 09:41:34;;;;;;;;;5.50;2.50;;;;;;;;5018079;28;61785;-78
2022/05/16 09:44:18;;;;;;;;;4.50;4.50;;;;;;;;5018189;28;62091;-79
2022/05/16 09:46:44;;;;;;;;;4.75;3.00;;;;;;;;5018230;28;62254;-78
2022/05/16 09:49:10;;;;;;;;;5.50;4.00;;;;;;;;5017243;28;62654;-78
2022/05/16 09:51:46;;;;;;;;;4.00;2.00;;;;;;;;5017802;28;61894;-79
2022/05/16 09:54:16;;;;;;;;;3.50;3.50;;;;;;;;5018358;28;61947;-79
2022/05/16 09:57:07;;;;;;;;;5.00;3.00;;;;;;;;5018202;28;61792;-79
2022/05/16 09:59:34;;;;;;;;;5.25;2.75;;;;;;;;5017033;28;61957;-79
2022/05/16 10:02:08;;;;;;;;;3.75;3.75;;;;;;;;5017837;28;61824;-78
2022/05/16 10:04:39;;;;;;;;;7.00;3.25;;;;;;;;5006176;28;62020;-78
2022/05/16 10:07:04;;;;;;;;;3.75;3.75;;;;;;;;5058793;28;61802;-78
2022/05/16 10:09:33;;;;;;;;;4.00;2.00;;;;;;;;5068861;28;61961;-78
2022/05/16 10:11:59;;;;;;;;;5.00;4.00;;;;;;;;5061496;28;61770;-78
2022/05/16 10:14:25;;;;;;;;;3.00;1.00;;;;;;;;5064037;28;62020;-78
2022/05/16 10:16:51;;;;;;;;;7.00;4.00;;;;;;;;5064493;28;61918;-78
2022/05/16 10:19:19;;;;;;;;;6.25;3.00;;;;;;;;5063806;28;62029;-79
2022/05/16 10:21:55;;;;;;;;;5.67;3.67;;;;;;;;5063817;28;61865;-78
2022/05/16 10:24:23;;;;;;;;;4.67;4.00;;;;;;;;5063940;28;61695;-78
2022/05/16 10:26:51;;;;;;;;;5.50;4.25;;;;;;;;5064158;28;61889;-78
2022/05/16 10:29:19;;;;;;;;;2.33;2.00;;;;;;;;5061806;28;64335;-78
2022/05/16 10:34:36;;;;;;;;;1.67;1.67;;;;;;;;5063638;28;61701;-79
2022/05/16 10:37:02;;;;;;;;;3.00;3.00;;;;;;;;5064037;28;61977;-79
2022/05/16 10:39:29;;;;;;;;;4.33;2.33;;;;;;;;5095568;27;63823;-78
2022/05/16 10:42:12;;;;;;;;;1.00;1.00;;;;;;;;5063473;28;61835;-78
2022/05/16 10:44:44;;;;;;;;;2.00;1.00;;;;;;;;5063745;28;61763;-79
2022/05/16 10:47:15;;;;;;;;;2.67;2.67;;;;;;;;5063929;28;61974;-79
2022/05/16 10:50:06;;;;;;;;;3.33;2.00;;;;;;;;5077558;28;63191;-79
2022/05/16 10:52:38;;;;;;;;;2.00;2.00;;;;;;;;5040926;28;61966;-77
2022/05/16 10:55:04;;;;;;;;;4.00;3.00;;;;;;;;5040348;28;61963;-78
2022/05/16 10:57:40;;;;;;;;;3.33;2.00;;;;;;;;5028644;28;62177;-77
2022/05/16 11:00:28;;;;;;;;;4.00;1.67;;;;;;;;5040032;28;63716;-78
2022/05/16 11:03:12;;;;;;;;;2.33;2.00;;;;;;;;5019381;28;62111;-78
2022/05/16 11:06:01;;;;;;;;;2.00;2.00;;;;;;;;5040658;28;61786;-78
2022/05/16 11:08:29;;;;;;;;;2.33;2.33;;;;;;;;5040340;28;62219;-78
2022/05/16 11:11:10;;;;;;;;;1.67;1.67;;;;;;;;5039750;28;62686;-78
2022/05/16 11:13:41;;;;;;;;;1.67;1.00;;;;;;;;5040680;28;61852;-78
2022/05/16 11:16:16;;;;;;;;;2.00;2.00;;;;;;;;5040181;28;61865;-78
2022/05/16 11:18:59;;;;;;;;;1.00;1.00;;;;;;;;5040193;28;61895;-78
2022/05/16 11:21:38;;;;;;;;;1.67;1.67;;;;;;;;5022476;28;63786;-78
2022/05/16 11:24:15;;;;;;;;;2.00;2.00;;;;;;;;5038393;28;61917;-78
2022/05/16 11:26:49;;;;;;;;;1.33;1.33;;;;;;;;5022457;28;61867;-78
2022/05/16 11:29:33;;;;;;;;;1.67;1.67;;;;;;;;5059371;28;61882;-79
2022/05/16 11:32:25;;;;;;;;;3.00;1.67;;;;;;;;5098256;27;62838;-78
2022/05/16 11:35:02;;;;;;;;;3.00;1.33;;;;;;;;5039942;28;62369;-78
2022/05/16 11:37:36;;;;;;;;;1.00;1.00;;;;;;;;5040339;28;62283;-79
2022/05/16 11:40:09;;;;;;;;;2.00;2.00;;;;;;;;5056897;28;62187;-79
2022/05/16 11:42:37;;;;;;;;;2.67;2.00;;;;;;;;5039415;28;63591;-79
2022/05/16 11:45:03;;;;;;;;;2.00;2.00;;;;;;;;5040835;28;61877;-80
2022/05/16 11:47:41;;;;;;;;;3.33;2.67;;;;;;;;5057140;28;61944;-79
2022/05/16 11:50:16;;;;;;;;;2.67;2.00;;;;;;;;5040556;28;61916;-79
2022/05/16 11:52:50;;;;;;;;;2.00;2.00;;;;;;;;5039683;28;62656;-79
2022/05/16 12:01:07;;;;;;;;;0.33;0.33;;;;;;;;5080791;28;62003;-79
2022/05/16 12:03:39;;;;;;;;;2.67;1.67;;;;;;;;5078845;28;61711;-79
2022/05/16 12:06:16;;;;;;;;;1.33;1.33;;;;;;;;5080295;28;61829;-79
2022/05/16 12:08:43;;;;;;;;;1.00;1.00;;;;;;;;5079891;28;61761;-80
2022/05/16 12:11:11;;;;;;;;;1.00;1.00;;;;;;;;5080640;28;61967;-79
2022/05/16 12:13:55;;;;;;;;;2.00;2.00;;;;;;;;5081887;28;61951;-80
2022/05/16 12:16:28;;;;;;;;;0.33;0.33;;;;;;;;5081727;28;62222;-80
2022/05/16 12:19:12;;;;;;;;;1.00;1.00;;;;;;;;5064414;28;61833;-79
2022/05/16 12:21:38;;;;;;;;;1.00;1.00;;;;;;;;5064620;28;61708;-80
2022/05/16 12:24:04;;;;;;;;;1.00;1.00;;;;;;;;5082229;28;62592;-80
2022/05/16 12:26:30;;;;;;;;;2.00;1.00;;;;;;;;5081893;28;61901;-80
2022/05/16 12:29:08;;;;;;;;;0.00;0.00;;;;;;;;5082275;28;62007;-79
2022/05/16 12:31:45;;;;;;;;;1.00;1.00;;;;;;;;5082033;28;61754;-80
2022/05/16 12:34:11;;;;;;;;;0.33;0.33;;;;;;;;5097594;27;65103;-80
2022/05/16 12:36:37;;;;;;;;;2.00;2.00;;;;;;;;5082428;28;61792;-79
2022/05/16 12:39:14;;;;;;;;;3.00;1.67;;;;;;;;5082487;28;62468;-80
2022/05/16 12:41:52;;;;;;;;;1.00;1.00;;;;;;;;5098647;27;61993;-80
2022/05/16 12:44:17;;;;;;;;;1.33;1.00;;;;;;;;5082078;28;61778;-80
2022/05/16 12:47:01;;;;;;;;;1.33;0.67;;;;;;;;5082267;28;61877;-79
2022/05/16 12:49:37;;;;;;;;;1.67;1.67;;;;;;;;5082580;28;61790;-80
2022/05/16 12:52:19;;;;;;;;;0.67;0.67;;;;;;;;5082835;28;61837;-80
2022/05/16 12:54:47;;;;;;;;;2.00;1.00;;;;;;;;5063796;28;63682;-79
2022/05/16 12:57:28;;;;;;;;;1.00;1.00;;;;;;;;5088176;27;62978;-79
2022/05/16 12:59:56;;;;;;;;;1.00;1.00;;;;;;;;5103178;27;61889;-80
2022/05/16 13:02:29;;;;;;;;;3.33;1.00;;;;;;;;5103071;27;61794;-80
2022/05/16 13:05:00;;;;;;;;;1.00;1.00;;;;;;;;5083862;27;64680;-80
2022/05/16 13:07:38;;;;;;;;;4.33;0.67;;;;;;;;5103126;27;62009;-80
2022/05/16 13:10:03;;;;;;;;;0.67;0.67;;;;;;;;5102464;27;61872;-80
2022/05/16 13:12:44;;;;;;;;;2.67;0.67;;;;;;;;5102899;27;61718;-80
2022/05/16 13:15:17;;;;;;;;;0.00;0.00;;;;;;;;5102373;27;61872;-80
2022/05/16 13:17:48;;;;;;;;;2.00;1.00;;;;;;;;5102517;27;62111;-79
2022/05/16 13:20:18;;;;;;;;;0.67;0.67;;;;;;;;5103003;27;61864;-79
2022/05/16 13:22:48;;;;;;;;;0.00;0.00;;;;;;;;5103016;27;62361;-80
2022/05/16 13:25:14;;;;;;;;;1.00;1.00;;;;;;;;5102216;27;61906;-80
2022/05/16 13:30:24;;;;;;;;;1.00;1.00;;;;;;;;5102371;27;61758;-80
2022/05/16 13:32:49;;;;;;;;;0.00;0.00;;;;;;;;5084127;27;61750;-81
2022/05/16 13:35:25;;;;;;;;;0.33;0.33;;;;;;;;5102146;27;61754;-80
2022/05/16 13:37:52;;;;;;;;;1.00;0.00;;;;;;;;5102522;27;61814;-80
2022/05/16 13:40:32;;;;;;;;;0.00;0.00;;;;;;;;5102369;27;61941;-81
2022/05/16 13:42:58;;;;;;;;;1.00;0.00;;;;;;;;5083809;27;62236;-80
2022/05/16 13:45:25;;;;;;;;;0.00;0.00;;;;;;;;5082890;27;64813;-80
2022/05/16 13:47:51;;;;;;;;;1.00;1.00;;;;;;;;5100558;27;61821;-81
2022/05/16 13:50:24;;;;;;;;;0.00;0.00;;;;;;;;5101816;27;61715;-80
2022/05/16 13:52:50;;;;;;;;;0.33;0.00;;;;;;;;5102489;27;62021;-81
2022/05/16 13:55:17;;;;;;;;;0.00;0.00;;;;;;;;5100931;27;62018;-81
2022/05/16 13:57:43;;;;;;;;;2.33;0.00;;;;;;;;5080755;27;62166;-80
2022/05/16 14:00:14;;;;;;;;;0.67;0.00;;;;;;;;5101218;27;61947;-80
2022/05/16 14:02:40;;;;;;;;;0.00;0.00;;;;;;;;5098592;27;61770;-80
2022/05/16 14:05:10;;;;;;;;;0.00;0.00;;;;;;;;5080616;27;63770;-80
2022/05/16 14:07:36;;;;;;;;;0.00;0.00;;;;;;;;5099823;27;61734;-79
2022/05/16 14:10:04;;;;;;;;;0.00;0.00;;;;;;;;5100129;27;61809;-80
2022/05/16 14:12:43;;;;;;;;;0.00;0.00;;;;;;;;5100723;27;61914;-81
2022/05/16 14:15:30;;;;;;;;;0.00;0.00;;;;;;;;5098122;27;62679;-80
2022/05/16 14:18:03;;;;;;;;;0.00;0.00;;;;;;;;5115560;27;61998;-80
2022/05/16 14:20:37;;;;;;;;;0.00;0.00;;;;;;;;5099174;27;61825;-81
2022/05/16 14:23:12;;;;;;;;;0.00;0.00;;;;;;;;5101682;27;62111;-81
2022/05/16 14:25:40;;;;;;;;;0.00;0.00;;;;;;;;5081976;27;63861;-81
2022/05/16 14:28:24;;;;;;;;;1.67;0.33;;;;;;;;5099769;27;62058;-81
2022/05/16 14:31:00;;;;;;;;;0.00;0.00;;;;;;;;5114143;27;62816;-81
2022/05/16 14:33:31;;;;;;;;;0.00;0.00;;;;;;;;5100885;27;61789;-81
2022/05/16 14:36:03;;;;;;;;;0.00;0.00;;;;;;;;5099841;27;61900;-81
2022/05/16 14:38:37;;;;;;;;;0.00;0.00;;;;;;;;5079420;27;61741;-81
2022/05/16 14:41:05;;;;;;;;;0.00;0.00;;;;;;;;5099927;27;61960;-80
2022/05/16 14:43:37;;;;;;;;;0.67;0.00;;;;;;;;5114148;27;62105;-81
2022/05/16 14:48:50;;;;;;;;;0.00;0.00;;;;;;;;5101117;27;61698;-81
2022/05/16 14:51:20;;;;;;;;;0.00;0.00;;;;;;;;5100969;27;61847;-81
2022/05/16 14:53:47;;;;;;;;;0.00;0.00;;;;;;;;5100932;27;62174;-80
2022/05/16 14:56:13;;;;;;;;;0.00;0.00;;;;;;;;5081297;27;64718;-80
2022/05/16 14:58:39;;;;;;;;;0.00;0.00;;;;;;;;5102570;27;61957;-80
2022/05/16 15:04:04;;;;;;;;;0.33;0.00;;;;;;;;5105340;27;62086;-81
2022/05/16 15:06:31;;;;;;;;;0.00;0.00;;;;;;;;5104117;27;61769;-83
2022/05/16 15:08:57;;;;;;;;;0.00;0.00;;;;;;;;5102941;27;61779;-79
2022/05/16 15:11:28;;;;;;;;;0.00;0.00;;;;;;;;5083459;27;61766;-80
2022/05/16 15:13:54;;;;;;;;;0.00;0.00;;;;;;;;5102401;27;61773;-79
2022/05/16 15:16:20;;;;;;;;;0.00;0.00;;;;;;;;5101827;27;61908;-79
2022/05/16 15:18:45;;;;;;;;;0.00;0.00;;;;;;;;5084148;27;61838;-80
2022/05/16 15:21:11;;;;;;;;;1.00;0.00;;;;;;;;5113213;27;61901;-79
2022/05/16 15:23:37;;;;;;;;;0.33;0.00;;;;;;;;5120728;27;61908;-80
2022/05/16 15:26:04;;;;;;;;;0.67;0.00;;;;;;;;5117758;27;62304;-79
2022/05/16 15:28:32;;;;;;;;;0.00;0.00;;;;;;;;5117604;27;61814;-79
2022/05/16 15:30:57;;;;;;;;;0.00;0.00;;;;;;;;5106012;27;61745;-80